sensor_id;sensor_type;location;lat;lon;timestamp;P1;durP1;ratioP1;P2;durP2;ratioP2
8891;SDS011;4482;54.332;10.118;2022-10-31T00:00:06;38.00;;;23.73;;
8891;SDS011;4482;54.332;10.118;2022-10-31T00:02:34;39.93;;;23.23;;
8891;SDS011;4482;54.332;10.118;2022-10-31T00:05:02;39.47;;;23.43;;
8891;SDS011;4482;54.332;10.118;2022-10-31T00:07:29;38.10;;;23.00;;
8891;SDS011;4482;54.332;10.118;2022-10-31T00:09:56;37.73;;;22.90;;
8891;SDS011;4482;54.332;10.118;2022-10-31T00:12:23;34.27;;;23.07;;
8891;SDS011;4482;54.332;10.118;2022-10-31T00:14:50;39.80;;;24.17;;
8891;SDS011;4482;54.332;10.118;2022-10-31T00:17:17;37.40;;;22.87;;
8891;SDS011;4482;54.332;10.118;2022-10-31T00:19:44;37.43;;;21.87;;
8891;SDS011;4482;54.332;10.118;2022-10-31T00:22:12;35.30;;;21.67;;
8891;SDS011;4482;54.332;10.118;2022-10-31T00:24:39;31.70;;;21.13;;
8891;SDS011;4482;54.332;10.118;2022-10-31T00:27:06;33.50;;;20.70;;
8891;SDS011;4482;54.332;10.118;2022-10-31T00:29:33;34.70;;;21.27;;
8891;SDS011;4482;54.332;10.118;2022-10-31T00:31:59;29.63;;;19.73;;
8891;SDS011;4482;54.332;10.118;2022-10-31T00:34:26;33.43;;;21.27;;
8891;SDS011;4482;54.332;10.118;2022-10-31T00:36:53;36.47;;;21.67;;
8891;SDS011;4482;54.332;10.118;2022-10-31T00:39:21;103.17;;;68.47;;
8891;SDS011;4482;54.332;10.118;2022-10-31T00:41:48;57.43;;;35.70;;
8891;SDS011;4482;54.332;10.118;2022-10-31T00:44:15;36.20;;;24.70;;
8891;SDS011;4482;54.332;10.118;2022-10-31T00:46:41;32.90;;;22.50;;
8891;SDS011;4482;54.332;10.118;2022-10-31T00:49:08;42.33;;;26.07;;
8891;SDS011;4482;54.332;10.118;2022-10-31T00:51:36;39.03;;;22.63;;
8891;SDS011;4482;54.332;10.118;2022-10-31T00:54:03;42.10;;;25.03;;
8891;SDS011;4482;54.332;10.118;2022-10-31T00:56:31;41.03;;;26.03;;
8891;SDS011;4482;54.332;10.118;2022-10-31T00:58:58;35.07;;;20.60;;
8891;SDS011;4482;54.332;10.118;2022-10-31T01:01:25;42.63;;;22.13;;
8891;SDS011;4482;54.332;10.118;2022-10-31T01:03:52;33.87;;;22.03;;
8891;SDS011;4482;54.332;10.118;2022-10-31T01:06:18;33.57;;;21.97;;
8891;SDS011;4482;54.332;10.118;2022-10-31T01:08:46;35.00;;;21.20;;
8891;SDS011;4482;54.332;10.118;2022-10-31T01:11:14;40.37;;;22.90;;
8891;SDS011;4482;54.332;10.118;2022-10-31T01:13:44;31.67;;;19.50;;
8891;SDS011;4482;54.332;10.118;2022-10-31T01:16:12;31.30;;;22.23;;
8891;SDS011;4482;54.332;10.118;2022-10-31T01:18:40;39.23;;;20.73;;
8891;SDS011;4482;54.332;10.118;2022-10-31T01:21:08;36.63;;;23.77;;
8891;SDS011;4482;54.332;10.118;2022-10-31T01:23:36;35.63;;;22.07;;
8891;SDS011;4482;54.332;10.118;2022-10-31T01:26:05;40.03;;;23.23;;
8891;SDS011;4482;54.332;10.118;2022-10-31T01:28:33;35.83;;;23.60;;
8891;SDS011;4482;54.332;10.118;2022-10-31T01:31:03;35.53;;;24.27;;
8891;SDS011;4482;54.332;10.118;2022-10-31T01:33:32;43.37;;;20.77;;
8891;SDS011;4482;54.332;10.118;2022-10-31T01:35:59;30.03;;;20.97;;
8891;SDS011;4482;54.332;10.118;2022-10-31T01:38:26;34.10;;;21.23;;
8891;SDS011;4482;54.332;10.118;2022-10-31T01:40:53;35.07;;;20.87;;
8891;SDS011;4482;54.332;10.118;2022-10-31T01:43:20;29.70;;;20.47;;
8891;SDS011;4482;54.332;10.118;2022-10-31T01:45:49;33.27;;;21.33;;
8891;SDS011;4482;54.332;10.118;2022-10-31T01:48:29;36.47;;;21.03;;
8891;SDS011;4482;54.332;10.118;2022-10-31T01:50:56;31.07;;;21.27;;
8891;SDS011;4482;54.332;10.118;2022-10-31T01:53:23;33.83;;;22.63;;
8891;SDS011;4482;54.332;10.118;2022-10-31T01:55:50;30.90;;;22.50;;
8891;SDS011;4482;54.332;10.118;2022-10-31T01:58:18;49.90;;;24.67;;
8891;SDS011;4482;54.332;10.118;2022-10-31T02:00:48;38.00;;;24.03;;
8891;SDS011;4482;54.332;10.118;2022-10-31T02:03:19;42.93;;;24.60;;
8891;SDS011;4482;54.332;10.118;2022-10-31T02:05:47;50.07;;;26.03;;
8891;SDS011;4482;54.332;10.118;2022-10-31T02:08:16;47.30;;;26.17;;
8891;SDS011;4482;54.332;10.118;2022-10-31T02:10:46;60.93;;;28.93;;
8891;SDS011;4482;54.332;10.118;2022-10-31T02:13:13;46.07;;;27.53;;
8891;SDS011;4482;54.332;10.118;2022-10-31T02:15:41;51.80;;;30.33;;
8891;SDS011;4482;54.332;10.118;2022-10-31T02:18:10;60.73;;;29.67;;
8891;SDS011;4482;54.332;10.118;2022-10-31T02:20:40;66.43;;;31.80;;
8891;SDS011;4482;54.332;10.118;2022-10-31T02:26:14;62.37;;;30.70;;
8891;SDS011;4482;54.332;10.118;2022-10-31T02:29:04;59.53;;;30.53;;
8891;SDS011;4482;54.332;10.118;2022-10-31T02:31:42;56.67;;;30.43;;
8891;SDS011;4482;54.332;10.118;2022-10-31T02:34:18;57.37;;;29.97;;
8891;SDS011;4482;54.332;10.118;2022-10-31T02:36:50;56.20;;;29.00;;
8891;SDS011;4482;54.332;10.118;2022-10-31T02:39:21;54.07;;;29.70;;
8891;SDS011;4482;54.332;10.118;2022-10-31T02:41:52;55.93;;;29.67;;
8891;SDS011;4482;54.332;10.118;2022-10-31T02:44:28;60.13;;;29.37;;
8891;SDS011;4482;54.332;10.118;2022-10-31T02:47:01;58.43;;;30.27;;
8891;SDS011;4482;54.332;10.118;2022-10-31T02:49:32;67.90;;;30.83;;
8891;SDS011;4482;54.332;10.118;2022-10-31T02:52:13;66.40;;;30.13;;
8891;SDS011;4482;54.332;10.118;2022-10-31T02:54:40;58.77;;;29.83;;
8891;SDS011;4482;54.332;10.118;2022-10-31T02:57:08;54.47;;;29.20;;
8891;SDS011;4482;54.332;10.118;2022-10-31T02:59:35;64.03;;;29.97;;
8891;SDS011;4482;54.332;10.118;2022-10-31T03:02:15;61.47;;;28.90;;
8891;SDS011;4482;54.332;10.118;2022-10-31T03:05:03;58.10;;;29.80;;
8891;SDS011;4482;54.332;10.118;2022-10-31T03:07:40;51.37;;;29.10;;
8891;SDS011;4482;54.332;10.118;2022-10-31T03:10:13;55.67;;;29.20;;
8891;SDS011;4482;54.332;10.118;2022-10-31T03:12:47;49.20;;;27.53;;
8891;SDS011;4482;54.332;10.118;2022-10-31T03:15:22;52.77;;;28.23;;
8891;SDS011;4482;54.332;10.118;2022-10-31T03:17:56;57.90;;;27.67;;
8891;SDS011;4482;54.332;10.118;2022-10-31T03:20:27;51.57;;;27.50;;
8891;SDS011;4482;54.332;10.118;2022-10-31T03:22:57;50.30;;;27.87;;
8891;SDS011;4482;54.332;10.118;2022-10-31T03:25:27;53.63;;;28.70;;
8891;SDS011;4482;54.332;10.118;2022-10-31T03:27:55;52.77;;;26.00;;
8891;SDS011;4482;54.332;10.118;2022-10-31T03:30:23;47.93;;;27.30;;
8891;SDS011;4482;54.332;10.118;2022-10-31T03:32:51;51.20;;;25.97;;
8891;SDS011;4482;54.332;10.118;2022-10-31T03:35:22;45.07;;;25.87;;
8891;SDS011;4482;54.332;10.118;2022-10-31T03:37:52;43.83;;;25.57;;
8891;SDS011;4482;54.332;10.118;2022-10-31T03:40:21;45.73;;;25.83;;
8891;SDS011;4482;54.332;10.118;2022-10-31T03:42:53;56.57;;;27.40;;
8891;SDS011;4482;54.332;10.118;2022-10-31T03:45:24;51.50;;;26.67;;
8891;SDS011;4482;54.332;10.118;2022-10-31T03:47:52;53.07;;;26.43;;
8891;SDS011;4482;54.332;10.118;2022-10-31T03:50:21;57.90;;;25.30;;
8891;SDS011;4482;54.332;10.118;2022-10-31T03:52:55;39.83;;;26.03;;
8891;SDS011;4482;54.332;10.118;2022-10-31T03:55:26;53.93;;;27.33;;
8891;SDS011;4482;54.332;10.118;2022-10-31T03:57:59;53.53;;;26.23;;
8891;SDS011;4482;54.332;10.118;2022-10-31T04:00:29;55.60;;;26.27;;
8891;SDS011;4482;54.332;10.118;2022-10-31T04:02:59;47.13;;;27.13;;
8891;SDS011;4482;54.332;10.118;2022-10-31T04:05:31;53.17;;;27.07;;
8891;SDS011;4482;54.332;10.118;2022-10-31T04:07:59;52.00;;;27.37;;
8891;SDS011;4482;54.332;10.118;2022-10-31T04:10:29;48.30;;;26.60;;
8891;SDS011;4482;54.332;10.118;2022-10-31T04:12:58;47.87;;;25.80;;
8891;SDS011;4482;54.332;10.118;2022-10-31T04:15:29;55.03;;;27.53;;
8891;SDS011;4482;54.332;10.118;2022-10-31T04:17:57;55.80;;;28.17;;
8891;SDS011;4482;54.332;10.118;2022-10-31T04:20:31;51.93;;;28.10;;
8891;SDS011;4482;54.332;10.118;2022-10-31T04:22:59;61.60;;;26.67;;
8891;SDS011;4482;54.332;10.118;2022-10-31T04:25:26;60.57;;;29.33;;
8891;SDS011;4482;54.332;10.118;2022-10-31T04:27:53;62.40;;;26.23;;
8891;SDS011;4482;54.332;10.118;2022-10-31T04:30:20;57.33;;;28.00;;
8891;SDS011;4482;54.332;10.118;2022-10-31T04:32:47;58.03;;;27.47;;
8891;SDS011;4482;54.332;10.118;2022-10-31T04:35:14;57.60;;;30.90;;
8891;SDS011;4482;54.332;10.118;2022-10-31T04:37:43;107.83;;;58.20;;
8891;SDS011;4482;54.332;10.118;2022-10-31T04:40:10;61.23;;;30.23;;
8891;SDS011;4482;54.332;10.118;2022-10-31T04:42:37;61.03;;;29.23;;
8891;SDS011;4482;54.332;10.118;2022-10-31T04:45:05;58.13;;;27.77;;
8891;SDS011;4482;54.332;10.118;2022-10-31T04:47:32;68.10;;;29.17;;
8891;SDS011;4482;54.332;10.118;2022-10-31T04:50:00;54.80;;;27.13;;
8891;SDS011;4482;54.332;10.118;2022-10-31T04:52:27;61.57;;;26.80;;
8891;SDS011;4482;54.332;10.118;2022-10-31T04:54:55;54.07;;;27.03;;
8891;SDS011;4482;54.332;10.118;2022-10-31T04:57:22;57.10;;;26.97;;
8891;SDS011;4482;54.332;10.118;2022-10-31T04:59:49;56.40;;;28.50;;
8891;SDS011;4482;54.332;10.118;2022-10-31T05:02:16;51.57;;;26.53;;
8891;SDS011;4482;54.332;10.118;2022-10-31T05:04:43;53.70;;;26.30;;
8891;SDS011;4482;54.332;10.118;2022-10-31T05:07:10;51.63;;;26.53;;
8891;SDS011;4482;54.332;10.118;2022-10-31T05:09:37;45.30;;;25.37;;
8891;SDS011;4482;54.332;10.118;2022-10-31T05:12:05;48.80;;;26.10;;
8891;SDS011;4482;54.332;10.118;2022-10-31T05:14:32;49.00;;;25.60;;
8891;SDS011;4482;54.332;10.118;2022-10-31T05:16:59;49.53;;;24.90;;
8891;SDS011;4482;54.332;10.118;2022-10-31T05:19:26;50.33;;;25.70;;
8891;SDS011;4482;54.332;10.118;2022-10-31T05:21:53;51.27;;;24.53;;
8891;SDS011;4482;54.332;10.118;2022-10-31T05:24:20;51.50;;;25.07;;
8891;SDS011;4482;54.332;10.118;2022-10-31T05:26:47;50.83;;;27.00;;
8891;SDS011;4482;54.332;10.118;2022-10-31T05:29:16;58.73;;;25.33;;
8891;SDS011;4482;54.332;10.118;2022-10-31T05:31:42;50.63;;;24.57;;
8891;SDS011;4482;54.332;10.118;2022-10-31T05:34:09;54.63;;;26.17;;
8891;SDS011;4482;54.332;10.118;2022-10-31T05:36:36;53.63;;;24.63;;
8891;SDS011;4482;54.332;10.118;2022-10-31T05:39:03;56.07;;;26.00;;
8891;SDS011;4482;54.332;10.118;2022-10-31T05:41:30;56.87;;;26.63;;
8891;SDS011;4482;54.332;10.118;2022-10-31T05:43:57;55.57;;;25.70;;
8891;SDS011;4482;54.332;10.118;2022-10-31T05:46:25;49.33;;;26.17;;
8891;SDS011;4482;54.332;10.118;2022-10-31T05:48:52;59.87;;;25.40;;
8891;SDS011;4482;54.332;10.118;2022-10-31T05:51:18;57.17;;;25.60;;
8891;SDS011;4482;54.332;10.118;2022-10-31T05:53:48;58.90;;;25.33;;
8891;SDS011;4482;54.332;10.118;2022-10-31T05:56:15;57.07;;;24.27;;
8891;SDS011;4482;54.332;10.118;2022-10-31T05:58:41;50.53;;;24.87;;
8891;SDS011;4482;54.332;10.118;2022-10-31T06:01:08;52.47;;;24.23;;
8891;SDS011;4482;54.332;10.118;2022-10-31T06:03:36;62.50;;;25.13;;
8891;SDS011;4482;54.332;10.118;2022-10-31T06:06:03;54.47;;;24.10;;
8891;SDS011;4482;54.332;10.118;2022-10-31T06:08:30;65.03;;;27.23;;
8891;SDS011;4482;54.332;10.118;2022-10-31T06:10:57;112.87;;;47.97;;
8891;SDS011;4482;54.332;10.118;2022-10-31T06:13:24;74.50;;;33.07;;
8891;SDS011;4482;54.332;10.118;2022-10-31T06:15:51;47.50;;;21.90;;
8891;SDS011;4482;54.332;10.118;2022-10-31T06:18:18;61.93;;;28.37;;
8891;SDS011;4482;54.332;10.118;2022-10-31T06:20:46;53.07;;;23.97;;
8891;SDS011;4482;54.332;10.118;2022-10-31T06:23:15;50.30;;;24.47;;
8891;SDS011;4482;54.332;10.118;2022-10-31T06:25:47;46.33;;;22.83;;
8891;SDS011;4482;54.332;10.118;2022-10-31T06:28:15;50.83;;;22.17;;
8891;SDS011;4482;54.332;10.118;2022-10-31T06:30:46;46.20;;;21.30;;
8891;SDS011;4482;54.332;10.118;2022-10-31T06:33:14;41.73;;;20.83;;
8891;SDS011;4482;54.332;10.118;2022-10-31T06:35:46;37.83;;;19.13;;
8891;SDS011;4482;54.332;10.118;2022-10-31T06:38:14;41.40;;;19.47;;
8891;SDS011;4482;54.332;10.118;2022-10-31T06:40:41;39.57;;;20.10;;
8891;SDS011;4482;54.332;10.118;2022-10-31T06:43:10;50.87;;;21.43;;
8891;SDS011;4482;54.332;10.118;2022-10-31T06:45:37;39.80;;;20.47;;
8891;SDS011;4482;54.332;10.118;2022-10-31T06:48:04;38.03;;;19.43;;
8891;SDS011;4482;54.332;10.118;2022-10-31T06:50:34;51.33;;;19.93;;
8891;SDS011;4482;54.332;10.118;2022-10-31T06:53:02;45.23;;;20.30;;
8891;SDS011;4482;54.332;10.118;2022-10-31T06:55:29;49.00;;;19.57;;
8891;SDS011;4482;54.332;10.118;2022-10-31T06:57:56;41.27;;;18.00;;
8891;SDS011;4482;54.332;10.118;2022-10-31T07:00:24;46.53;;;21.07;;
8891;SDS011;4482;54.332;10.118;2022-10-31T07:02:53;44.03;;;20.03;;
8891;SDS011;4482;54.332;10.118;2022-10-31T07:05:21;42.13;;;20.97;;
8891;SDS011;4482;54.332;10.118;2022-10-31T07:07:51;46.07;;;20.63;;
8891;SDS011;4482;54.332;10.118;2022-10-31T07:10:20;56.50;;;26.93;;
8891;SDS011;4482;54.332;10.118;2022-10-31T07:12:46;78.90;;;44.63;;
8891;SDS011;4482;54.332;10.118;2022-10-31T07:15:13;53.90;;;30.17;;
8891;SDS011;4482;54.332;10.118;2022-10-31T07:17:40;37.33;;;19.07;;
8891;SDS011;4482;54.332;10.118;2022-10-31T07:20:07;37.53;;;19.37;;
8891;SDS011;4482;54.332;10.118;2022-10-31T07:22:35;38.57;;;17.57;;
8891;SDS011;4482;54.332;10.118;2022-10-31T07:25:03;34.00;;;17.07;;
8891;SDS011;4482;54.332;10.118;2022-10-31T07:27:36;31.17;;;14.80;;
8891;SDS011;4482;54.332;10.118;2022-10-31T07:30:03;29.83;;;14.50;;
8891;SDS011;4482;54.332;10.118;2022-10-31T07:32:36;29.73;;;15.87;;
8891;SDS011;4482;54.332;10.118;2022-10-31T07:35:04;23.53;;;14.70;;
8891;SDS011;4482;54.332;10.118;2022-10-31T07:37:32;32.40;;;17.63;;
8891;SDS011;4482;54.332;10.118;2022-10-31T07:39:59;27.03;;;14.20;;
8891;SDS011;4482;54.332;10.118;2022-10-31T07:42:26;25.77;;;15.57;;
8891;SDS011;4482;54.332;10.118;2022-10-31T07:44:55;32.03;;;15.00;;
8891;SDS011;4482;54.332;10.118;2022-10-31T07:47:21;25.13;;;14.40;;
8891;SDS011;4482;54.332;10.118;2022-10-31T07:49:48;27.37;;;14.83;;
8891;SDS011;4482;54.332;10.118;2022-10-31T07:52:15;32.63;;;14.57;;
8891;SDS011;4482;54.332;10.118;2022-10-31T07:54:42;42.60;;;25.40;;
8891;SDS011;4482;54.332;10.118;2022-10-31T07:57:09;44.60;;;23.30;;
8891;SDS011;4482;54.332;10.118;2022-10-31T07:59:35;33.73;;;16.17;;
8891;SDS011;4482;54.332;10.118;2022-10-31T08:02:04;36.53;;;15.33;;
8891;SDS011;4482;54.332;10.118;2022-10-31T08:04:31;28.47;;;15.13;;
8891;SDS011;4482;54.332;10.118;2022-10-31T08:06:57;23.80;;;13.83;;
8891;SDS011;4482;54.332;10.118;2022-10-31T08:09:24;31.77;;;15.10;;
8891;SDS011;4482;54.332;10.118;2022-10-31T08:11:52;27.67;;;14.87;;
8891;SDS011;4482;54.332;10.118;2022-10-31T08:14:19;27.57;;;15.57;;
8891;SDS011;4482;54.332;10.118;2022-10-31T08:16:47;26.73;;;14.23;;
8891;SDS011;4482;54.332;10.118;2022-10-31T08:19:15;28.77;;;14.83;;
8891;SDS011;4482;54.332;10.118;2022-10-31T08:21:42;30.50;;;15.03;;
8891;SDS011;4482;54.332;10.118;2022-10-31T08:24:09;28.47;;;14.10;;
8891;SDS011;4482;54.332;10.118;2022-10-31T08:26:36;25.83;;;14.37;;
8891;SDS011;4482;54.332;10.118;2022-10-31T08:29:02;27.40;;;14.90;;
8891;SDS011;4482;54.332;10.118;2022-10-31T08:31:29;25.93;;;14.13;;
8891;SDS011;4482;54.332;10.118;2022-10-31T08:33:56;26.70;;;15.23;;
8891;SDS011;4482;54.332;10.118;2022-10-31T08:36:24;26.57;;;15.43;;
8891;SDS011;4482;54.332;10.118;2022-10-31T08:38:51;27.07;;;15.03;;
8891;SDS011;4482;54.332;10.118;2022-10-31T08:41:18;24.10;;;14.43;;
8891;SDS011;4482;54.332;10.118;2022-10-31T08:43:45;20.00;;;13.10;;
8891;SDS011;4482;54.332;10.118;2022-10-31T08:46:12;21.33;;;13.10;;
8891;SDS011;4482;54.332;10.118;2022-10-31T08:48:39;22.10;;;12.37;;
8891;SDS011;4482;54.332;10.118;2022-10-31T08:51:06;22.87;;;13.73;;
8891;SDS011;4482;54.332;10.118;2022-10-31T08:53:35;17.63;;;11.87;;
8891;SDS011;4482;54.332;10.118;2022-10-31T08:56:02;19.63;;;11.23;;
8891;SDS011;4482;54.332;10.118;2022-10-31T08:58:30;14.70;;;9.57;;
8891;SDS011;4482;54.332;10.118;2022-10-31T09:00:58;22.00;;;10.10;;
8891;SDS011;4482;54.332;10.118;2022-10-31T09:03:26;14.17;;;9.30;;
8891;SDS011;4482;54.332;10.118;2022-10-31T09:05:56;12.70;;;8.53;;
8891;SDS011;4482;54.332;10.118;2022-10-31T09:08:25;18.63;;;9.50;;
8891;SDS011;4482;54.332;10.118;2022-10-31T09:10:55;14.77;;;9.07;;
8891;SDS011;4482;54.332;10.118;2022-10-31T09:13:22;14.77;;;8.80;;
8891;SDS011;4482;54.332;10.118;2022-10-31T09:15:49;21.50;;;9.33;;
8891;SDS011;4482;54.332;10.118;2022-10-31T09:18:17;17.10;;;8.87;;
8891;SDS011;4482;54.332;10.118;2022-10-31T09:20:45;14.23;;;9.40;;
8891;SDS011;4482;54.332;10.118;2022-10-31T09:23:14;11.77;;;8.37;;
8891;SDS011;4482;54.332;10.118;2022-10-31T09:25:42;12.13;;;8.53;;
8891;SDS011;4482;54.332;10.118;2022-10-31T09:28:12;12.93;;;8.00;;
8891;SDS011;4482;54.332;10.118;2022-10-31T09:30:40;14.00;;;7.50;;
8891;SDS011;4482;54.332;10.118;2022-10-31T09:33:09;17.97;;;8.87;;
8891;SDS011;4482;54.332;10.118;2022-10-31T09:35:36;11.27;;;6.70;;
8891;SDS011;4482;54.332;10.118;2022-10-31T09:38:04;9.60;;;5.70;;
8891;SDS011;4482;54.332;10.118;2022-10-31T09:40:33;13.20;;;7.10;;
8891;SDS011;4482;54.332;10.118;2022-10-31T09:43:03;13.63;;;7.30;;
8891;SDS011;4482;54.332;10.118;2022-10-31T09:45:41;11.73;;;7.07;;
8891;SDS011;4482;54.332;10.118;2022-10-31T09:48:20;10.10;;;6.63;;
8891;SDS011;4482;54.332;10.118;2022-10-31T09:50:58;15.73;;;6.57;;
8891;SDS011;4482;54.332;10.118;2022-10-31T09:53:31;12.03;;;7.13;;
8891;SDS011;4482;54.332;10.118;2022-10-31T09:56:04;16.20;;;7.13;;
8891;SDS011;4482;54.332;10.118;2022-10-31T09:58:34;14.50;;;7.53;;
8891;SDS011;4482;54.332;10.118;2022-10-31T10:01:12;13.60;;;8.67;;
8891;SDS011;4482;54.332;10.118;2022-10-31T10:03:50;13.77;;;7.20;;
8891;SDS011;4482;54.332;10.118;2022-10-31T10:06:22;14.90;;;7.90;;
8891;SDS011;4482;54.332;10.118;2022-10-31T10:08:52;16.20;;;8.03;;
8891;SDS011;4482;54.332;10.118;2022-10-31T10:11:22;18.00;;;8.23;;
8891;SDS011;4482;54.332;10.118;2022-10-31T10:14:01;15.00;;;7.97;;
8891;SDS011;4482;54.332;10.118;2022-10-31T10:16:38;15.50;;;8.13;;
8891;SDS011;4482;54.332;10.118;2022-10-31T10:19:31;17.53;;;8.70;;
8891;SDS011;4482;54.332;10.118;2022-10-31T10:22:09;16.43;;;8.03;;
8891;SDS011;4482;54.332;10.118;2022-10-31T10:24:44;20.13;;;9.37;;
8891;SDS011;4482;54.332;10.118;2022-10-31T10:27:35;18.60;;;9.73;;
8891;SDS011;4482;54.332;10.118;2022-10-31T10:30:11;15.10;;;8.83;;
8891;SDS011;4482;54.332;10.118;2022-10-31T10:32:42;13.93;;;8.40;;
8891;SDS011;4482;54.332;10.118;2022-10-31T10:35:14;14.63;;;8.20;;
8891;SDS011;4482;54.332;10.118;2022-10-31T10:37:46;10.20;;;6.50;;
8891;SDS011;4482;54.332;10.118;2022-10-31T10:40:18;10.13;;;5.87;;
8891;SDS011;4482;54.332;10.118;2022-10-31T10:42:50;8.80;;;6.07;;
8891;SDS011;4482;54.332;10.118;2022-10-31T10:45:41;8.77;;;4.90;;
8891;SDS011;4482;54.332;10.118;2022-10-31T10:48:32;9.20;;;5.40;;
8891;SDS011;4482;54.332;10.118;2022-10-31T10:51:10;10.73;;;5.80;;
8891;SDS011;4482;54.332;10.118;2022-10-31T10:53:49;5.53;;;4.00;;
8891;SDS011;4482;54.332;10.118;2022-10-31T10:56:33;85.80;;;49.83;;
8891;SDS011;4482;54.332;10.118;2022-10-31T10:59:06;18.00;;;12.03;;
8891;SDS011;4482;54.332;10.118;2022-10-31T11:01:37;6.50;;;5.27;;
8891;SDS011;4482;54.332;10.118;2022-10-31T11:04:09;6.27;;;4.37;;
8891;SDS011;4482;54.332;10.118;2022-10-31T11:06:57;5.80;;;4.13;;
8891;SDS011;4482;54.332;10.118;2022-10-31T11:09:25;7.67;;;4.23;;
8891;SDS011;4482;54.332;10.118;2022-10-31T11:11:52;4.80;;;4.30;;
8891;SDS011;4482;54.332;10.118;2022-10-31T11:14:19;4.40;;;4.00;;
8891;SDS011;4482;54.332;10.118;2022-10-31T11:16:49;14.80;;;7.67;;
8891;SDS011;4482;54.332;10.118;2022-10-31T11:19:21;8.50;;;5.10;;
8891;SDS011;4482;54.332;10.118;2022-10-31T11:21:50;11.17;;;6.87;;
8891;SDS011;4482;54.332;10.118;2022-10-31T11:24:17;8.40;;;5.00;;
8891;SDS011;4482;54.332;10.118;2022-10-31T11:26:46;11.03;;;5.63;;
8891;SDS011;4482;54.332;10.118;2022-10-31T11:29:14;6.13;;;5.20;;
8891;SDS011;4482;54.332;10.118;2022-10-31T11:31:43;7.00;;;5.27;;
8891;SDS011;4482;54.332;10.118;2022-10-31T11:34:16;5.43;;;5.03;;
8891;SDS011;4482;54.332;10.118;2022-10-31T11:36:54;6.97;;;5.63;;
8891;SDS011;4482;54.332;10.118;2022-10-31T11:39:25;9.30;;;6.00;;
8891;SDS011;4482;54.332;10.118;2022-10-31T11:41:52;8.87;;;6.23;;
8891;SDS011;4482;54.332;10.118;2022-10-31T11:44:22;8.07;;;6.77;;
8891;SDS011;4482;54.332;10.118;2022-10-31T11:46:51;15.27;;;9.33;;
8891;SDS011;4482;54.332;10.118;2022-10-31T11:49:23;42.27;;;25.47;;
8891;SDS011;4482;54.332;10.118;2022-10-31T11:51:56;16.53;;;11.83;;
8891;SDS011;4482;54.332;10.118;2022-10-31T11:54:25;19.80;;;11.43;;
8891;SDS011;4482;54.332;10.118;2022-10-31T11:56:55;12.33;;;8.80;;
8891;SDS011;4482;54.332;10.118;2022-10-31T11:59:23;17.50;;;12.30;;
8891;SDS011;4482;54.332;10.118;2022-10-31T12:01:53;10.47;;;8.80;;
8891;SDS011;4482;54.332;10.118;2022-10-31T12:04:24;15.27;;;8.97;;
8891;SDS011;4482;54.332;10.118;2022-10-31T12:06:58;13.30;;;9.40;;
8891;SDS011;4482;54.332;10.118;2022-10-31T12:09:25;14.33;;;8.30;;
8891;SDS011;4482;54.332;10.118;2022-10-31T12:14:53;14.23;;;9.63;;
8891;SDS011;4482;54.332;10.118;2022-10-31T12:17:29;11.10;;;8.03;;
8891;SDS011;4482;54.332;10.118;2022-10-31T12:20:06;11.27;;;8.47;;
8891;SDS011;4482;54.332;10.118;2022-10-31T12:22:44;14.80;;;9.40;;
8891;SDS011;4482;54.332;10.118;2022-10-31T12:25:21;11.13;;;6.97;;
8891;SDS011;4482;54.332;10.118;2022-10-31T12:27:59;13.27;;;7.17;;
8891;SDS011;4482;54.332;10.118;2022-10-31T12:30:40;11.30;;;8.17;;
8891;SDS011;4482;54.332;10.118;2022-10-31T12:33:22;8.70;;;6.83;;
8891;SDS011;4482;54.332;10.118;2022-10-31T12:36:07;11.87;;;7.67;;
8891;SDS011;4482;54.332;10.118;2022-10-31T12:38:55;8.83;;;6.50;;
8891;SDS011;4482;54.332;10.118;2022-10-31T12:41:46;11.77;;;8.47;;
8891;SDS011;4482;54.332;10.118;2022-10-31T12:50:20;10.27;;;6.77;;
8891;SDS011;4482;54.332;10.118;2022-10-31T12:52:56;7.37;;;6.07;;
8891;SDS011;4482;54.332;10.118;2022-10-31T12:55:40;91.83;;;55.90;;
8891;SDS011;4482;54.332;10.118;2022-10-31T12:58:14;20.60;;;13.13;;
8891;SDS011;4482;54.332;10.118;2022-10-31T13:00:48;27.87;;;17.27;;
8891;SDS011;4482;54.332;10.118;2022-10-31T13:03:24;20.27;;;12.43;;
8891;SDS011;4482;54.332;10.118;2022-10-31T13:05:56;23.40;;;14.53;;
8891;SDS011;4482;54.332;10.118;2022-10-31T13:08:28;40.07;;;26.40;;
8891;SDS011;4482;54.332;10.118;2022-10-31T13:11:04;22.00;;;12.13;;
8891;SDS011;4482;54.332;10.118;2022-10-31T13:13:36;13.80;;;8.07;;
8891;SDS011;4482;54.332;10.118;2022-10-31T13:16:09;27.07;;;17.27;;
8891;SDS011;4482;54.332;10.118;2022-10-31T13:18:40;11.57;;;5.70;;
8891;SDS011;4482;54.332;10.118;2022-10-31T13:21:12;16.80;;;10.27;;
8891;SDS011;4482;54.332;10.118;2022-10-31T13:23:46;17.80;;;9.67;;
8891;SDS011;4482;54.332;10.118;2022-10-31T13:26:16;11.80;;;8.33;;
8891;SDS011;4482;54.332;10.118;2022-10-31T13:28:48;13.87;;;8.73;;
8891;SDS011;4482;54.332;10.118;2022-10-31T13:31:20;10.63;;;6.50;;
8891;SDS011;4482;54.332;10.118;2022-10-31T13:33:48;9.47;;;6.87;;
8891;SDS011;4482;54.332;10.118;2022-10-31T13:36:25;7.83;;;4.77;;
8891;SDS011;4482;54.332;10.118;2022-10-31T13:39:02;10.30;;;5.87;;
8891;SDS011;4482;54.332;10.118;2022-10-31T13:41:42;12.17;;;4.93;;
8891;SDS011;4482;54.332;10.118;2022-10-31T13:44:13;10.83;;;5.73;;
8891;SDS011;4482;54.332;10.118;2022-10-31T13:46:43;6.63;;;4.77;;
8891;SDS011;4482;54.332;10.118;2022-10-31T13:49:21;13.70;;;8.93;;
8891;SDS011;4482;54.332;10.118;2022-10-31T13:51:51;19.20;;;10.07;;
8891;SDS011;4482;54.332;10.118;2022-10-31T13:54:21;11.60;;;6.20;;
8891;SDS011;4482;54.332;10.118;2022-10-31T13:56:49;20.90;;;10.97;;
8891;SDS011;4482;54.332;10.118;2022-10-31T13:59:18;13.40;;;7.00;;
8891;SDS011;4482;54.332;10.118;2022-10-31T14:01:51;10.97;;;5.93;;
8891;SDS011;4482;54.332;10.118;2022-10-31T14:04:21;7.13;;;6.07;;
8891;SDS011;4482;54.332;10.118;2022-10-31T14:06:57;9.80;;;5.20;;
8891;SDS011;4482;54.332;10.118;2022-10-31T14:09:33;13.83;;;6.17;;
8891;SDS011;4482;54.332;10.118;2022-10-31T14:12:04;7.53;;;4.67;;
8891;SDS011;4482;54.332;10.118;2022-10-31T14:14:35;10.23;;;7.03;;
8891;SDS011;4482;54.332;10.118;2022-10-31T14:17:16;10.60;;;5.83;;
8891;SDS011;4482;54.332;10.118;2022-10-31T14:19:57;14.73;;;6.70;;
8891;SDS011;4482;54.332;10.118;2022-10-31T14:22:31;16.33;;;7.80;;
8891;SDS011;4482;54.332;10.118;2022-10-31T14:24:59;6.97;;;5.73;;
8891;SDS011;4482;54.332;10.118;2022-10-31T14:27:32;12.67;;;6.33;;
8891;SDS011;4482;54.332;10.118;2022-10-31T14:30:12;64.60;;;35.03;;
8891;SDS011;4482;54.332;10.118;2022-10-31T14:32:41;37.00;;;22.93;;
8891;SDS011;4482;54.332;10.118;2022-10-31T14:35:12;14.33;;;5.87;;
8891;SDS011;4482;54.332;10.118;2022-10-31T14:37:53;10.40;;;5.50;;
8891;SDS011;4482;54.332;10.118;2022-10-31T14:40:41;10.17;;;6.27;;
8891;SDS011;4482;54.332;10.118;2022-10-31T14:43:30;13.40;;;5.90;;
8891;SDS011;4482;54.332;10.118;2022-10-31T14:46:09;9.50;;;6.00;;
8891;SDS011;4482;54.332;10.118;2022-10-31T14:48:48;11.23;;;7.60;;
8891;SDS011;4482;54.332;10.118;2022-10-31T14:51:30;18.47;;;11.83;;
8891;SDS011;4482;54.332;10.118;2022-10-31T14:54:02;20.27;;;11.30;;
8891;SDS011;4482;54.332;10.118;2022-10-31T14:56:35;10.30;;;6.87;;
8891;SDS011;4482;54.332;10.118;2022-10-31T14:59:08;10.37;;;6.10;;
8891;SDS011;4482;54.332;10.118;2022-10-31T15:01:40;13.93;;;9.23;;
8891;SDS011;4482;54.332;10.118;2022-10-31T15:04:20;13.47;;;8.20;;
8891;SDS011;4482;54.332;10.118;2022-10-31T15:06:52;16.50;;;9.17;;
8891;SDS011;4482;54.332;10.118;2022-10-31T15:09:27;14.40;;;9.10;;
8891;SDS011;4482;54.332;10.118;2022-10-31T15:11:58;9.33;;;6.60;;